sensor_id;sensor_type;location;lat;lon;timestamp;P1;P2;P0
49686;PMS5003;36064;38.180;-122.272;2023-04-01T00:00:00;1.0;1.6;
49686;PMS5003;36064;38.180;-122.272;2023-04-01T00:05:00;3.8;3.4;
49686;PMS5003;36064;38.180;-122.272;2023-04-01T00:10:02;1.8;1.2;
49686;PMS5003;36064;38.180;-122.272;2023-04-01T00:15:01;1.6;1.8;
49686;PMS5003;36064;38.180;-122.272;2023-04-01T00:20:00;1.4;0.0;
49686;PMS5003;36064;38.180;-122.272;2023-04-01T00:25:01;1.4;1.0;
49686;PMS5003;36064;38.180;-122.272;2023-04-01T00:30:00;0.6;0.6;
49686;PMS5003;36064;38.180;-122.272;2023-04-01T00:35:04;0.6;0.6;
49686;PMS5003;36064;38.180;-122.272;2023-04-01T00:40:01;1.4;1.4;
49686;PMS5003;36064;38.180;-122.272;2023-04-01T00:50:01;1.8;1.4;
49686;PMS5003;36064;38.180;-122.272;2023-04-01T00:55:01;2.6;2.6;
49686;PMS5003;36064;38.180;-122.272;2023-04-01T01:00:03;2.0;2.0;
49686;PMS5003;36064;38.180;-122.272;2023-04-01T01:05:00;0.8;0.8;
49686;PMS5003;36064;38.180;-122.272;2023-04-01T01:10:02;0.4;0.4;
49686;PMS5003;36064;38.180;-122.272;2023-04-01T01:15:03;4.4;4.4;
49686;PMS5003;36064;38.180;-122.272;2023-04-01T01:30:05;7.8;7.8;
49686;PMS5003;36064;38.180;-122.272;2023-04-01T01:35:07;3.0;3.0;
49686;PMS5003;36064;38.180;-122.272;2023-04-01T01:40:01;1.8;2.4;
49686;PMS5003;36064;38.180;-122.272;2023-04-01T01:45:00;5.4;5.4;
49686;PMS5003;36064;38.180;-122.272;2023-04-01T01:50:00;5.2;4.8;
49686;PMS5003;36064;38.180;-122.272;2023-04-01T01:55:00;4.8;4.6;
49686;PMS5003;36064;38.180;-122.272;2023-04-01T02:00:03;1.2;1.2;
49686;PMS5003;36064;38.180;-122.272;2023-04-01T02:05:00;1.8;1.8;
49686;PMS5003;36064;38.180;-122.272;2023-04-01T02:10:00;3.0;2.6;
49686;PMS5003;36064;38.180;-122.272;2023-04-01T02:15:01;4.4;4.0;
49686;PMS5003;36064;38.180;-122.272;2023-04-01T02:20:01;2.0;4.0;
49686;PMS5003;36064;38.180;-122.272;2023-04-01T02:25:02;1.8;1.8;
49686;PMS5003;36064;38.180;-122.272;2023-04-01T02:30:00;4.2;3.8;
49686;PMS5003;36064;38.180;-122.272;2023-04-01T02:35:00;1.8;1.0;
49686;PMS5003;36064;38.180;-122.272;2023-04-01T02:40:01;3.2;1.6;
49686;PMS5003;36064;38.180;-122.272;2023-04-01T02:45:00;2.0;1.6;
49686;PMS5003;36064;38.180;-122.272;2023-04-01T02:50:00;1.8;1.2;
49686;PMS5003;36064;38.180;-122.272;2023-04-01T02:55:01;2.0;1.2;
49686;PMS5003;36064;38.180;-122.272;2023-04-01T03:00:00;2.0;2.0;
49686;PMS5003;36064;38.180;-122.272;2023-04-01T03:05:00;2.4;2.2;
49686;PMS5003;36064;38.180;-122.272;2023-04-01T03:10:00;0.6;0.4;
49686;PMS5003;36064;38.180;-122.272;2023-04-01T03:15:00;0.6;1.8;
49686;PMS5003;36064;38.180;-122.272;2023-04-01T03:20:00;2.0;1.2;
49686;PMS5003;36064;38.180;-122.272;2023-04-01T03:25:01;3.4;2.6;
49686;PMS5003;36064;38.180;-122.272;2023-04-01T03:30:00;1.8;1.4;
49686;PMS5003;36064;38.180;-122.272;2023-04-01T03:35:00;4.4;3.2;
49686;PMS5003;36064;38.180;-122.272;2023-04-01T03:40:00;3.6;3.8;
49686;PMS5003;36064;38.180;-122.272;2023-04-01T03:45:00;2.2;1.4;
49686;PMS5003;36064;38.180;-122.272;2023-04-01T03:50:00;0.8;0.4;
49686;PMS5003;36064;38.180;-122.272;2023-04-01T03:55:01;3.2;1.6;
49686;PMS5003;36064;38.180;-122.272;2023-04-01T04:00:00;3.8;2.6;
49686;PMS5003;36064;38.180;-122.272;2023-04-01T04:05:00;1.4;1.6;
49686;PMS5003;36064;38.180;-122.272;2023-04-01T04:10:00;2.0;1.6;
49686;PMS5003;36064;38.180;-122.272;2023-04-01T04:15:00;1.4;1.4;
49686;PMS5003;36064;38.180;-122.272;2023-04-01T04:20:00;2.4;1.6;
49686;PMS5003;36064;38.180;-122.272;2023-04-01T04:25:00;2.6;1.0;
49686;PMS5003;36064;38.180;-122.272;2023-04-01T04:30:00;2.6;1.0;
49686;PMS5003;36064;38.180;-122.272;2023-04-01T04:35:00;2.0;2.0;
49686;PMS5003;36064;38.180;-122.272;2023-04-01T04:40:00;2.2;1.8;
49686;PMS5003;36064;38.180;-122.272;2023-04-01T04:45:00;2.6;2.2;
49686;PMS5003;36064;38.180;-122.272;2023-04-01T04:50:00;4.0;2.2;
49686;PMS5003;36064;38.180;-122.272;2023-04-01T04:55:00;1.8;1.0;
49686;PMS5003;36064;38.180;-122.272;2023-04-01T05:00:00;2.8;1.2;
49686;PMS5003;36064;38.180;-122.272;2023-04-01T05:05:00;4.0;2.8;
49686;PMS5003;36064;38.180;-122.272;2023-04-01T05:10:00;2.0;1.2;
49686;PMS5003;36064;38.180;-122.272;2023-04-01T05:15:00;1.4;1.4;
49686;PMS5003;36064;38.180;-122.272;2023-04-01T05:20:00;1.6;1.6;
49686;PMS5003;36064;38.180;-122.272;2023-04-01T05:25:00;3.2;2.6;
49686;PMS5003;36064;38.180;-122.272;2023-04-01T05:30:00;2.6;2.0;
49686;PMS5003;36064;38.180;-122.272;2023-04-01T05:35:00;2.0;2.0;
49686;PMS5003;36064;38.180;-122.272;2023-04-01T05:40:01;2.0;1.6;
49686;PMS5003;36064;38.180;-122.272;2023-04-01T05:45:00;2.4;2.4;
49686;PMS5003;36064;38.180;-122.272;2023-04-01T05:50:00;2.4;2.4;
49686;PMS5003;36064;38.180;-122.272;2023-04-01T05:55:01;3.8;3.8;
49686;PMS5003;36064;38.180;-122.272;2023-04-01T06:00:00;3.6;3.6;
49686;PMS5003;36064;38.180;-122.272;2023-04-01T06:05:03;5.4;3.8;
49686;PMS5003;36064;38.180;-122.272;2023-04-01T06:10:00;5.4;3.8;
49686;PMS5003;36064;38.180;-122.272;2023-04-01T06:15:04;3.4;3.0;
49686;PMS5003;36064;38.180;-122.272;2023-04-01T06:20:02;2.8;2.2;
49686;PMS5003;36064;38.180;-122.272;2023-04-01T06:25:05;3.0;1.4;
49686;PMS5003;36064;38.180;-122.272;2023-04-01T06:30:07;3.4;2.6;
49686;PMS5003;36064;38.180;-122.272;2023-04-01T06:35:04;1.2;1.2;
49686;PMS5003;36064;38.180;-122.272;2023-04-01T06:40:06;1.8;1.8;
49686;PMS5003;36064;38.180;-122.272;2023-04-01T06:45:04;3.4;2.6;
49686;PMS5003;36064;38.180;-122.272;2023-04-01T06:50:02;2.8;2.4;
49686;PMS5003;36064;38.180;-122.272;2023-04-01T06:55:02;3.4;1.0;
49686;PMS5003;36064;38.180;-122.272;2023-04-01T07:00:02;3.8;1.6;
49686;PMS5003;36064;38.180;-122.272;2023-04-01T07:05:00;3.8;3.8;
49686;PMS5003;36064;38.180;-122.272;2023-04-01T07:10:02;4.6;3.8;
49686;PMS5003;36064;38.180;-122.272;2023-04-01T07:15:01;3.4;3.2;
49686;PMS5003;36064;38.180;-122.272;2023-04-01T07:20:01;3.2;3.6;
49686;PMS5003;36064;38.180;-122.272;2023-04-01T07:25:03;6.6;5.0;
49686;PMS5003;36064;38.180;-122.272;2023-04-01T07:30:01;7.2;5.4;
49686;PMS5003;36064;38.180;-122.272;2023-04-01T07:35:03;6.4;6.4;
49686;PMS5003;36064;38.180;-122.272;2023-04-01T07:40:04;9.2;7.6;
49686;PMS5003;36064;38.180;-122.272;2023-04-01T07:45:03;6.4;5.6;
49686;PMS5003;36064;38.180;-122.272;2023-04-01T07:50:03;7.2;6.6;
49686;PMS5003;36064;38.180;-122.272;2023-04-01T07:55:02;8.0;7.8;
49686;PMS5003;36064;38.180;-122.272;2023-04-01T08:00:02;5.4;5.0;
49686;PMS5003;36064;38.180;-122.272;2023-04-01T08:05:03;6.2;5.6;
49686;PMS5003;36064;38.180;-122.272;2023-04-01T08:10:02;5.4;4.4;
49686;PMS5003;36064;38.180;-122.272;2023-04-01T08:15:03;5.0;5.0;
49686;PMS5003;36064;38.180;-122.272;2023-04-01T08:20:05;4.2;3.8;
49686;PMS5003;36064;38.180;-122.272;2023-04-01T08:25:02;5.4;3.8;
49686;PMS5003;36064;38.180;-122.272;2023-04-01T08:30:02;3.0;3.2;
49686;PMS5003;36064;38.180;-122.272;2023-04-01T08:35:05;2.8;2.6;
49686;PMS5003;36064;38.180;-122.272;2023-04-01T08:40:02;5.8;5.4;
49686;PMS5003;36064;38.180;-122.272;2023-04-01T08:45:06;5.0;5.0;
49686;PMS5003;36064;38.180;-122.272;2023-04-01T08:50:04;4.2;3.8;
49686;PMS5003;36064;38.180;-122.272;2023-04-01T09:00:03;4.2;4.0;
49686;PMS5003;36064;38.180;-122.272;2023-04-01T09:05:06;4.2;3.8;
49686;PMS5003;36064;38.180;-122.272;2023-04-01T09:10:07;3.4;3.4;
49686;PMS5003;36064;38.180;-122.272;2023-04-01T09:20:05;6.2;4.4;
49686;PMS5003;36064;38.180;-122.272;2023-04-01T09:25:06;3.6;2.6;
49686;PMS5003;36064;38.180;-122.272;2023-04-01T09:35:02;4.8;4.0;
49686;PMS5003;36064;38.180;-122.272;2023-04-01T09:40:11;5.0;4.6;
49686;PMS5003;36064;38.180;-122.272;2023-04-01T09:45:01;5.4;4.2;
49686;PMS5003;36064;38.180;-122.272;2023-04-01T09:50:06;6.2;5.2;
49686;PMS5003;36064;38.180;-122.272;2023-04-01T09:55:06;8.8;8.4;
49686;PMS5003;36064;38.180;-122.272;2023-04-01T10:05:06;7.4;7.0;
49686;PMS5003;36064;38.180;-122.272;2023-04-01T10:10:09;6.0;5.6;
49686;PMS5003;36064;38.180;-122.272;2023-04-01T10:40:07;7.8;7.4;
49686;PMS5003;36064;38.180;-122.272;2023-04-01T10:55:06;6.4;6.0;
49686;PMS5003;36064;38.180;-122.272;2023-04-01T11:20:05;6.2;5.4;
49686;PMS5003;36064;38.180;-122.272;2023-04-01T11:35:04;6.4;6.4;
49686;PMS5003;36064;38.180;-122.272;2023-04-01T11:40:04;7.2;7.2;
49686;PMS5003;36064;38.180;-122.272;2023-04-01T11:45:05;6.0;7.2;
49686;PMS5003;36064;38.180;-122.272;2023-04-01T11:50:08;5.8;5.4;
49686;PMS5003;36064;38.180;-122.272;2023-04-01T12:00:02;6.4;5.8;
49686;PMS5003;36064;38.180;-122.272;2023-04-01T12:05:04;4.8;4.8;
49686;PMS5003;36064;38.180;-122.272;2023-04-01T12:10:03;5.76;5.76;
49686;PMS5003;36064;38.180;-122.272;2023-04-01T12:15:04;4.2;4.2;
49686;PMS5003;36064;38.180;-122.272;2023-04-01T12:20:20;6.4;6.0;
49686;PMS5003;36064;38.180;-122.272;2023-04-01T12:25:04;5.6;6.0;
49686;PMS5003;36064;38.180;-122.272;2023-04-01T12:30:06;7.0;5.4;
49686;PMS5003;36064;38.180;-122.272;2023-04-01T12:35:03;7.4;6.0;
49686;PMS5003;36064;38.180;-122.272;2023-04-01T12:40:09;9.2;6.4;
49686;PMS5003;36064;38.180;-122.272;2023-04-01T12:45:03;8.6;6.0;
49686;PMS5003;36064;38.180;-122.272;2023-04-01T12:55:04;6.0;4.8;
49686;PMS5003;36064;38.180;-122.272;2023-04-01T13:00:05;7.0;5.2;
49686;PMS5003;36064;38.180;-122.272;2023-04-01T13:05:09;6.0;5.4;
49686;PMS5003;36064;38.180;-122.272;2023-04-01T13:10:02;8.2;5.8;
49686;PMS5003;36064;38.180;-122.272;2023-04-01T13:15:05;6.2;5.0;
49686;PMS5003;36064;38.180;-122.272;2023-04-01T13:20:02;6.6;5.8;
49686;PMS5003;36064;38.180;-122.272;2023-04-01T13:25:02;7.2;7.0;
49686;PMS5003;36064;38.180;-122.272;2023-04-01T13:30:03;7.0;6.8;
49686;PMS5003;36064;38.180;-122.272;2023-04-01T13:35:04;6.8;6.0;
49686;PMS5003;36064;38.180;-122.272;2023-04-01T13:40:03;6.4;6.0;
49686;PMS5003;36064;38.180;-122.272;2023-04-01T13:45:01;7.4;6.4;
49686;PMS5003;36064;38.180;-122.272;2023-04-01T14:00:03;8.8;7.8;
49686;PMS5003;36064;38.180;-122.272;2023-04-01T14:05:07;9.6;9.0;
49686;PMS5003;36064;38.180;-122.272;2023-04-01T14:15:05;6.8;6.4;
49686;PMS5003;36064;38.180;-122.272;2023-04-01T14:20:07;6.8;5.6;
49686;PMS5003;36064;38.180;-122.272;2023-04-01T14:25:06;7.6;6.2;
49686;PMS5003;36064;38.180;-122.272;2023-04-01T14:30:05;6.0;5.6;
49686;PMS5003;36064;38.180;-122.272;2023-04-01T14:35:09;6.6;5.4;
49686;PMS5003;36064;38.180;-122.272;2023-04-01T14:50:05;7.2;6.8;
49686;PMS5003;36064;38.180;-122.272;2023-04-01T14:55:00;4.4;4.0;
49686;PMS5003;36064;38.180;-122.272;2023-04-01T15:00:05;3.6;4.2;
49686;PMS5003;36064;38.180;-122.272;2023-04-01T15:05:03;5.8;4.8;
49686;PMS5003;36064;38.180;-122.272;2023-04-01T15:10:02;5.2;4.8;
49686;PMS5003;36064;38.180;-122.272;2023-04-01T15:15:09;5.8;4.4;
49686;PMS5003;36064;38.180;-122.272;2023-04-01T15:20:08;7.0;4.8;
49686;PMS5003;36064;38.180;-122.272;2023-04-01T15:35:03;6.8;6.0;
49686;PMS5003;36064;38.180;-122.272;2023-04-01T15:40:03;8.0;7.0;
49686;PMS5003;36064;38.180;-122.272;2023-04-01T15:45:05;7.2;7.6;
49686;PMS5003;36064;38.180;-122.272;2023-04-01T15:50:05;6.0;5.8;
49686;PMS5003;36064;38.180;-122.272;2023-04-01T15:55:03;6.6;5.8;
49686;PMS5003;36064;38.180;-122.272;2023-04-01T16:00:10;5.8;5.2;
49686;PMS5003;36064;38.180;-122.272;2023-04-01T16:05:02;5.0;5.2;
49686;PMS5003;36064;38.180;-122.272;2023-04-01T16:10:06;8.0;7.8;
49686;PMS5003;36064;38.180;-122.272;2023-04-01T16:15:04;9.4;7.6;
49686;PMS5003;36064;38.180;-122.272;2023-04-01T16:20:02;5.2;6.0;
49686;PMS5003;36064;38.180;-122.272;2023-04-01T16:25:07;7.2;6.4;
49686;PMS5003;36064;38.180;-122.272;2023-04-01T16:30:03;7.6;5.8;
49686;PMS5003;36064;38.180;-122.272;2023-04-01T16:35:04;6.6;6.6;
49686;PMS5003;36064;38.180;-122.272;2023-04-01T16:40:03;6.2;5.2;
49686;PMS5003;36064;38.180;-122.272;2023-04-01T16:45:06;6.2;5.4;
49686;PMS5003;36064;38.180;-122.272;2023-04-01T16:50:05;7.4;5.0;
49686;PMS5003;36064;38.180;-122.272;2023-04-01T16:55:02;8.6;8.0;
49686;PMS5003;36064;38.180;-122.272;2023-04-01T17:00:02;4.0;3.8;
49686;PMS5003;36064;38.180;-122.272;2023-04-01T17:05:01;7.4;6.6;
49686;PMS5003;36064;38.180;-122.272;2023-04-01T17:10:05;6.0;5.0;
49686;PMS5003;36064;38.180;-122.272;2023-04-01T17:15:02;7.0;4.4;
49686;PMS5003;36064;38.180;-122.272;2023-04-01T17:20:05;7.8;7.4;
49686;PMS5003;36064;38.180;-122.272;2023-04-01T17:25:07;9.4;9.0;
49686;PMS5003;36064;38.180;-122.272;2023-04-01T17:30:11;8.6;6.6;
49686;PMS5003;36064;38.180;-122.272;2023-04-01T17:35:01;9.2;8.0;
49686;PMS5003;36064;38.180;-122.272;2023-04-01T17:40:06;8.4;7.6;
49686;PMS5003;36064;38.180;-122.272;2023-04-01T17:45:02;9.2;8.4;
49686;PMS5003;36064;38.180;-122.272;2023-04-01T17:50:02;8.6;7.8;
49686;PMS5003;36064;38.180;-122.272;2023-04-01T17:55:12;7.8;7.8;
49686;PMS5003;36064;38.180;-122.272;2023-04-01T18:00:02;5.8;4.8;
49686;PMS5003;36064;38.180;-122.272;2023-04-01T18:10:05;5.4;5.0;
49686;PMS5003;36064;38.180;-122.272;2023-04-01T18:25:02;5.0;4.6;
49686;PMS5003;36064;38.180;-122.272;2023-04-01T18:30:03;4.0;4.0;
49686;PMS5003;36064;38.180;-122.272;2023-04-01T18:35:02;6.6;5.8;
49686;PMS5003;36064;38.180;-122.272;2023-04-01T18:40:03;8.4;7.2;
49686;PMS5003;36064;38.180;-122.272;2023-04-01T18:45:01;7.0;6.0;
49686;PMS5003;36064;38.180;-122.272;2023-04-01T18:50:02;6.8;5.2;
49686;PMS5003;36064;38.180;-122.272;2023-04-01T19:00:03;3.4;3.4;
49686;PMS5003;36064;38.180;-122.272;2023-04-01T19:05:02;4.0;3.2;
49686;PMS5003;36064;38.180;-122.272;2023-04-01T19:10:06;4.0;3.4;
49686;PMS5003;36064;38.180;-122.272;2023-04-01T19:15:06;3.8;3.4;
49686;PMS5003;36064;38.180;-122.272;2023-04-01T19:20:04;3.6;3.6;
49686;PMS5003;36064;38.180;-122.272;2023-04-01T19:25:02;4.8;4.4;
49686;PMS5003;36064;38.180;-122.272;2023-04-01T19:30:07;5.4;4.6;
49686;PMS5003;36064;38.180;-122.272;2023-04-01T19:35:06;2.2;1.8;
49686;PMS5003;36064;38.180;-122.272;2023-04-01T19:40:04;6.2;5.6;
49686;PMS5003;36064;38.180;-122.272;2023-04-01T19:45:04;4.2;4.2;
49686;PMS5003;36064;38.180;-122.272;2023-04-01T19:50:02;2.8;2.4;
49686;PMS5003;36064;38.180;-122.272;2023-04-01T19:55:02;3.2;2.8;
49686;PMS5003;36064;38.180;-122.272;2023-04-01T20:00:02;2.8;2.4;
49686;PMS5003;36064;38.180;-122.272;2023-04-01T20:05:02;4.0;3.6;
49686;PMS5003;36064;38.180;-122.272;2023-04-01T20:10:02;1.6;1.6;
49686;PMS5003;36064;38.180;-122.272;2023-04-01T20:15:02;2.6;2.6;
49686;PMS5003;36064;38.180;-122.272;2023-04-01T20:20:01;3.0;2.6;
49686;PMS5003;36064;38.180;-122.272;2023-04-01T20:25:02;4.8;4.2;
49686;PMS5003;36064;38.180;-122.272;2023-04-01T20:35:08;3.8;2.4;
49686;PMS5003;36064;38.180;-122.272;2023-04-01T20:45:10;3.4;3.0;
49686;PMS5003;36064;38.180;-122.272;2023-04-01T20:50:01;2.4;2.4;
49686;PMS5003;36064;38.180;-122.272;2023-04-01T21:00:08;4.4;4.0;
49686;PMS5003;36064;38.180;-122.272;2023-04-01T21:05:08;3.6;2.8;
49686;PMS5003;36064;38.180;-122.272;2023-04-01T21:10:06;1.6;1.8;
49686;PMS5003;36064;38.180;-122.272;2023-04-01T21:15:09;2.8;2.4;
49686;PMS5003;36064;38.180;-122.272;2023-04-01T21:20:04;1.4;1.4;
49686;PMS5003;36064;38.180;-122.272;2023-04-01T21:25:09;1.4;2.2;
49686;PMS5003;36064;38.180;-122.272;2023-04-01T21:30:03;1.8;1.6;
49686;PMS5003;36064;38.180;-122.272;2023-04-01T21:35:01;2.8;2.0;
49686;PMS5003;36064;38.180;-122.272;2023-04-01T21:40:05;2.8;2.6;
49686;PMS5003;36064;38.180;-122.272;2023-04-01T21:45:03;3.2;2.6;
49686;PMS5003;36064;38.180;-122.272;2023-04-01T21:50:04;4.8;3.6;
49686;PMS5003;36064;38.180;-122.272;2023-04-01T21:55:08;2.4;2.4;
49686;PMS5003;36064;38.180;-122.272;2023-04-01T22:00:07;2.0;1.6;
49686;PMS5003;36064;38.180;-122.272;2023-04-01T22:05:02;2.8;2.4;
49686;PMS5003;36064;38.180;-122.272;2023-04-01T22:10:03;0.8;0.8;
49686;PMS5003;36064;38.180;-122.272;2023-04-01T22:15:02;1.6;1.6;
49686;PMS5003;36064;38.180;-122.272;2023-04-01T22:20:03;2.8;3.4;
49686;PMS5003;36064;38.180;-122.272;2023-04-01T22:25:02;2.8;1.2;
49686;PMS5003;36064;38.180;-122.272;2023-04-01T22:30:08;1.6;1.8;
49686;PMS5003;36064;38.180;-122.272;2023-04-01T22:35:02;1.2;1.0;
49686;PMS5003;36064;38.180;-122.272;2023-04-01T22:40:08;1.8;1.2;
49686;PMS5003;36064;38.180;-122.272;2023-04-01T22:45:04;2.0;1.6;
49686;PMS5003;36064;38.180;-122.272;2023-04-01T22:50:02;2.2;1.6;
49686;PMS5003;36064;38.180;-122.272;2023-04-01T22:55:03;2.2;2.0;
49686;PMS5003;36064;38.180;-122.272;2023-04-01T23:00:04;1.8;1.8;
49686;PMS5003;36064;38.180;-122.272;2023-04-01T23:05:02;1.8;1.8;
49686;PMS5003;36064;38.180;-122.272;2023-04-01T23:10:01;2.4;2.4;
49686;PMS5003;36064;38.180;-122.272;2023-04-01T23:15:01;1.0;2.4;
49686;PMS5003;36064;38.180;-122.272;2023-04-01T23:20:02;2.4;1.0;
49686;PMS5003;36064;38.180;-122.272;2023-04-01T23:25:03;2.2;1.0;
49686;PMS5003;36064;38.180;-122.272;2023-04-01T23:30:00;2.8;1.6;
49686;PMS5003;36064;38.180;-122.272;2023-04-01T23:35:00;1.6;1.6;
49686;PMS5003;36064;38.180;-122.272;2023-04-01T23:40:00;3.0;2.2;
49686;PMS5003;36064;38.180;-122.272;2023-04-01T23:45:01;3.6;3.6;
49686;PMS5003;36064;38.180;-122.272;2023-04-01T23:50:01;4.4;2.8;
49686;PMS5003;36064;38.180;-122.272;2023-04-01T23:55:03;1.6;0.8;
